Time;durP1;ratioP1;P1;durP2;ratioP2;P2;SDS_P1;SDS_P2;PMS_P1;PMS_P2;Temp;Humidity;BMP_temperature;BMP_pressure;BME280_temperature;BME280_humidity;BME280_pressure;Samples;Min_cycle;Max_cycle;Signal;HPM_P1;HPM_P2
2021/11/26 00:00:57;;;;;;;7.07;3.67;;;;;;;;;;10460558;28;20029;-81
2021/11/26 00:05:59;;;;;;;5.25;3.38;;;;;;;;;;10453568;28;20449;-79
2021/11/26 00:10:59;;;;;;;8.02;3.78;;;;;;;;;;10457377;28;20048;-80
2021/11/26 00:16:06;;;;;;;7.75;3.75;;;;;;;;;;10452660;28;20032;-79
2021/11/26 00:21:07;;;;;;;5.88;3.42;;;;;;;;;;10457527;28;20032;-79
2021/11/26 00:26:07;;;;;;;4.75;3.70;;;;;;;;;;10459220;28;20040;-79
2021/11/26 00:31:07;;;;;;;6.10;3.35;;;;;;;;;;10457111;22;20523;-76
2021/11/26 00:36:08;;;;;;;5.95;3.22;;;;;;;;;;10375690;28;20089;-75
2021/11/26 00:41:08;;;;;;;4.63;3.53;;;;;;;;;;10376528;28;20042;-76
2021/11/26 00:46:09;;;;;;;4.00;2.85;;;;;;;;;;10376254;28;20495;-75
2021/11/26 00:51:10;;;;;;;5.05;3.75;;;;;;;;;;10376733;28;20030;-75
2021/11/26 00:56:10;;;;;;;4.60;3.20;;;;;;;;;;10376690;28;20030;-76
2021/11/26 01:01:11;;;;;;;7.03;3.38;;;;;;;;;;10376104;28;20084;-76
2021/11/26 01:06:11;;;;;;;6.23;3.20;;;;;;;;;;10375979;28;20034;-76
2021/11/26 01:11:12;;;;;;;9.82;3.10;;;;;;;;;;10375861;28;20452;-76
2021/11/26 01:16:12;;;;;;;10.32;3.60;;;;;;;;;;10375455;28;20069;-76
2021/11/26 01:21:13;;;;;;;5.28;2.78;;;;;;;;;;10374974;28;20101;-77
2021/11/26 01:26:13;;;;;;;3.97;2.67;;;;;;;;;;10375672;28;20041;-76
2021/11/26 01:31:14;;;;;;;6.38;3.25;;;;;;;;;;10375529;28;20057;-76
2021/11/26 01:36:14;;;;;;;3.60;3.13;;;;;;;;;;10375215;28;20403;-76
2021/11/26 01:41:15;;;;;;;5.47;3.10;;;;;;;;;;10374975;28;20052;-77
2021/11/26 01:46:16;;;;;;;4.45;2.80;;;;;;;;;;10374747;28;20048;-77
2021/11/26 01:51:16;;;;;;;4.20;3.08;;;;;;;;;;10374540;28;20033;-76
2021/11/26 01:56:17;;;;;;;4.88;3.28;;;;;;;;;;10374818;28;20033;-76
2021/11/26 02:01:18;;;;;;;4.30;3.37;;;;;;;;;;10374374;28;20510;-76
2021/11/26 02:06:19;;;;;;;2.95;2.60;;;;;;;;;;10373186;28;20448;-76
2021/11/26 02:11:19;;;;;;;5.55;2.75;;;;;;;;;;10373635;28;20040;-76
2021/11/26 02:16:20;;;;;;;3.85;2.63;;;;;;;;;;10374230;28;20026;-76
2021/11/26 02:21:21;;;;;;;5.78;3.20;;;;;;;;;;10374006;28;20124;-76
2021/11/26 02:26:21;;;;;;;5.15;2.67;;;;;;;;;;10389142;28;20066;-76
2021/11/26 02:31:21;;;;;;;4.90;3.33;;;;;;;;;;10374063;28;20073;-76
2021/11/26 02:36:22;;;;;;;4.03;2.90;;;;;;;;;;10374121;28;20026;-77
2021/11/26 02:41:23;;;;;;;5.60;2.60;;;;;;;;;;10373403;28;20440;-76
2021/11/26 02:46:23;;;;;;;6.85;2.78;;;;;;;;;;10373442;28;20452;-76
2021/11/26 02:51:24;;;;;;;3.83;2.60;;;;;;;;;;10373265;28;20105;-76
2021/11/26 02:56:24;;;;;;;3.65;2.65;;;;;;;;;;10373890;28;20444;-76
2021/11/26 03:01:25;;;;;;;5.27;2.60;;;;;;;;;;10380698;28;20096;-76
2021/11/26 03:06:25;;;;;;;4.15;2.80;;;;;;;;;;10381051;28;20534;-76
2021/11/26 03:11:26;;;;;;;6.78;2.80;;;;;;;;;;10380905;28;20061;-75
2021/11/26 03:16:26;;;;;;;2.40;2.20;;;;;;;;;;10380237;28;20506;-76
2021/11/26 03:21:26;;;;;;;4.37;2.50;;;;;;;;;;10379889;28;20454;-76
2021/11/26 03:26:27;;;;;;;4.10;2.50;;;;;;;;;;10379970;28;20038;-76
2021/11/26 03:31:27;;;;;;;3.97;2.53;;;;;;;;;;10379075;28;20479;-76
2021/11/26 03:36:27;;;;;;;3.73;2.73;;;;;;;;;;10379388;28;20531;-76
2021/11/26 03:41:28;;;;;;;5.43;2.47;;;;;;;;;;10379043;28;20435;-77
2021/11/26 03:46:28;;;;;;;3.05;2.33;;;;;;;;;;10379298;28;20459;-79
2021/11/26 03:51:29;;;;;;;2.88;2.40;;;;;;;;;;10379132;28;20033;-77
2021/11/26 03:56:29;;;;;;;4.40;2.53;;;;;;;;;;10377509;28;20042;-77
2021/11/26 04:01:30;;;;;;;3.67;2.30;;;;;;;;;;10378721;28;20026;-77
2021/11/26 04:06:30;;;;;;;3.22;2.55;;;;;;;;;;10378447;28;20778;-77
2021/11/26 04:11:32;;;;;;;4.32;2.50;;;;;;;;;;10378297;28;20160;-77
2021/11/26 04:16:34;;;;;;;2.63;2.30;;;;;;;;;;10378412;28;20030;-77
2021/11/26 04:21:34;;;;;;;3.35;2.33;;;;;;;;;;10377560;28;20492;-76
2021/11/26 04:26:35;;;;;;;3.13;2.50;;;;;;;;;;10377731;28;20037;-77
2021/11/26 04:31:35;;;;;;;6.88;2.47;;;;;;;;;;10375876;28;20088;-77
2021/11/26 04:36:36;;;;;;;3.10;2.47;;;;;;;;;;10377520;28;20057;-76
2021/11/26 04:41:36;;;;;;;4.37;2.53;;;;;;;;;;10377823;28;20992;-76
2021/11/26 04:46:36;;;;;;;4.17;3.00;;;;;;;;;;10376363;28;20462;-76
2021/11/26 04:51:37;;;;;;;2.87;2.17;;;;;;;;;;10376766;28;20527;-76
2021/11/26 04:56:37;;;;;;;4.13;2.67;;;;;;;;;;10376745;28;20464;-76
2021/11/26 05:01:38;;;;;;;2.63;2.40;;;;;;;;;;10376449;28;20457;-76
2021/11/26 05:06:38;;;;;;;2.60;2.23;;;;;;;;;;10376080;28;20053;-76
2021/11/26 05:11:39;;;;;;;2.28;2.08;;;;;;;;;;10375157;28;20494;-76
2021/11/26 05:16:39;;;;;;;3.90;2.63;;;;;;;;;;10375054;28;20026;-76
2021/11/26 05:21:40;;;;;;;3.30;2.07;;;;;;;;;;10376372;28;20038;-77
2021/11/26 05:26:40;;;;;;;2.83;2.42;;;;;;;;;;10377700;28;20857;-76
2021/11/26 05:31:41;;;;;;;2.60;2.28;;;;;;;;;;10377347;28;20050;-77
2021/11/26 05:36:43;;;;;;;4.10;2.40;;;;;;;;;;10375558;28;20041;-76
2021/11/26 05:41:44;;;;;;;2.60;2.40;;;;;;;;;;10375605;28;20030;-77
2021/11/26 05:46:44;;;;;;;3.10;2.10;;;;;;;;;;10373795;28;20441;-77
2021/11/26 05:51:44;;;;;;;2.25;2.00;;;;;;;;;;10375181;28;20036;-78
2021/11/26 05:56:45;;;;;;;3.03;2.30;;;;;;;;;;10374201;28;20105;-78
2021/11/26 06:01:45;;;;;;;2.60;2.40;;;;;;;;;;10374278;28;20514;-77
2021/11/26 06:06:46;;;;;;;3.40;2.80;;;;;;;;;;10374205;28;20472;-77
2021/11/26 06:11:46;;;;;;;3.13;2.83;;;;;;;;;;10373979;28;20164;-77
2021/11/26 06:16:46;;;;;;;4.65;4.30;;;;;;;;;;10374347;28;20442;-77
2021/11/26 06:21:47;;;;;;;4.87;4.43;;;;;;;;;;10373380;28;20040;-76
2021/11/26 06:26:47;;;;;;;5.10;4.60;;;;;;;;;;10373963;28;20987;-76
2021/11/26 06:31:47;;;;;;;3.13;2.63;;;;;;;;;;10373477;28;20511;-76
2021/11/26 06:36:48;;;;;;;3.73;2.70;;;;;;;;;;10381919;28;20452;-76
2021/11/26 06:41:49;;;;;;;3.20;2.70;;;;;;;;;;10381605;28;20116;-76
2021/11/26 06:46:50;;;;;;;2.45;2.25;;;;;;;;;;10381479;28;20033;-76
2021/11/26 06:51:50;;;;;;;3.75;3.30;;;;;;;;;;10381653;28;20413;-76
2021/11/26 06:57:28;;;;;;;6.78;3.88;;;;;;;;;;10671743;27;20453;-84
2021/11/26 07:02:28;;;;;;;4.28;3.67;;;;;;;;;;10634040;27;20057;-88
2021/11/26 07:07:28;;;;;;;6.73;4.00;;;;;;;;;;10628691;27;20020;-87
2021/11/26 07:12:29;;;;;;;5.53;4.43;;;;;;;;;;10632120;27;20463;-84
2021/11/26 07:17:29;;;;;;;6.00;4.70;;;;;;;;;;10651848;27;21404;-85
2021/11/26 07:22:30;;;;;;;8.55;4.60;;;;;;;;;;10654780;27;20444;-81
2021/11/26 07:27:31;;;;;;;15.25;4.60;;;;;;;;;;10659421;27;20019;-86
2021/11/26 07:32:31;;;;;;;12.45;4.50;;;;;;;;;;10657684;27;20031;-86
2021/11/26 07:37:32;;;;;;;14.43;5.20;;;;;;;;;;10657958;27;20098;-86
2021/11/26 07:42:34;;;;;;;15.02;5.00;;;;;;;;;;10658924;27;20454;-90
2021/11/26 07:47:35;;;;;;;8.50;4.72;;;;;;;;;;10654616;27;20421;-86
2021/11/26 07:52:36;;;;;;;6.97;4.60;;;;;;;;;;10643492;27;20098;-86
2021/11/26 07:57:37;;;;;;;10.18;5.05;;;;;;;;;;10648762;27;20023;-86
2021/11/26 08:02:38;;;;;;;7.85;3.55;;;;;;;;;;10648069;27;20031;-86
2021/11/26 08:07:39;;;;;;;7.88;2.90;;;;;;;;;;10634462;27;20106;-86
2021/11/26 08:12:41;;;;;;;8.45;3.88;;;;;;;;;;10608972;27;20027;-86
2021/11/26 08:17:41;;;;;;;4.97;3.03;;;;;;;;;;10618628;27;20026;-86
2021/11/26 08:22:42;;;;;;;5.32;3.22;;;;;;;;;;10599616;27;20036;-86
2021/11/26 08:27:42;;;;;;;7.13;3.42;;;;;;;;;;10582892;28;20024;-86
2021/11/26 08:32:43;;;;;;;7.82;3.30;;;;;;;;;;10590203;27;20019;-85
2021/11/26 08:37:43;;;;;;;6.30;3.20;;;;;;;;;;10611317;27;20027;-85
2021/11/26 08:42:45;;;;;;;11.83;3.73;;;;;;;;;;10601084;27;20035;-86
2021/11/26 08:47:46;;;;;;;8.02;3.22;;;;;;;;;;10579266;28;20444;-86
2021/11/26 08:52:47;;;;;;;8.65;3.00;;;;;;;;;;10585629;28;20059;-85
2021/11/26 08:57:53;;;;;;;4.07;2.95;;;;;;;;;;10586061;28;20027;-85
2021/11/26 09:02:54;;;;;;;6.40;2.90;;;;;;;;;;10585712;28;20461;-85
2021/11/26 09:08:02;;;;;;;7.95;2.80;;;;;;;;;;10600444;27;20049;-85
2021/11/26 09:13:03;;;;;;;5.57;3.17;;;;;;;;;;10584636;27;20034;-85
2021/11/26 09:18:04;;;;;;;6.38;3.30;;;;;;;;;;10607422;27;20023;-84
2021/11/26 09:23:05;;;;;;;4.60;3.00;;;;;;;;;;10604962;27;20047;-85
2021/11/26 09:28:06;;;;;;;5.82;3.47;;;;;;;;;;10584916;27;20437;-85
2021/11/26 09:33:06;;;;;;;5.03;3.03;;;;;;;;;;10584106;28;20030;-84
2021/11/26 09:38:06;;;;;;;6.85;3.30;;;;;;;;;;10584449;28;20051;-84
2021/11/26 09:43:07;;;;;;;10.97;3.00;;;;;;;;;;10583770;28;20034;-85
2021/11/26 09:48:07;;;;;;;8.70;3.17;;;;;;;;;;10583656;28;20476;-85
2021/11/26 09:53:23;;;;;;;4.22;2.85;;;;;;;;;;10583117;28;20486;-84
2021/11/26 09:58:27;;;;;;;4.95;3.00;;;;;;;;;;10583059;28;20031;-84
2021/11/26 10:03:48;;;;;;;6.32;2.75;;;;;;;;;;10583661;27;20396;-83
2021/11/26 10:09:10;;;;;;;6.07;2.80;;;;;;;;;;10596666;27;20161;-84
2021/11/26 10:14:28;;;;;;;5.40;2.80;;;;;;;;;;10606191;27;20031;-86
2021/11/26 10:19:35;;;;;;;4.67;3.10;;;;;;;;;;10582155;28;20032;-84
2021/11/26 10:24:36;;;;;;;6.18;3.13;;;;;;;;;;10582398;28;20469;-80
2021/11/26 10:29:38;;;;;;;3.17;2.83;;;;;;;;;;10582048;28;20051;-79
2021/11/26 10:34:41;;;;;;;5.82;3.35;;;;;;;;;;10582884;28;20540;-79
2021/11/26 10:39:41;;;;;;;5.18;3.40;;;;;;;;;;10581931;28;20034;-80
2021/11/26 10:44:47;;;;;;;4.37;3.37;;;;;;;;;;10582065;28;20034;-80
2021/11/26 10:50:04;;;;;;;4.20;3.40;;;;;;;;;;10581189;28;20971;-79
2021/11/26 11:00:35;;;;;;;4.18;3.42;;;;;;;;;;10581478;28;20098;-79
2021/11/26 11:05:40;;;;;;;5.33;3.93;;;;;;;;;;10599214;28;20118;-81
2021/11/26 11:10:40;;;;;;;6.13;3.80;;;;;;;;;;10563189;28;20451;-81
2021/11/26 11:15:42;;;;;;;4.35;3.42;;;;;;;;;;10580867;28;20024;-81
2021/11/26 11:20:45;;;;;;;4.75;3.20;;;;;;;;;;10581167;28;20024;-81
2021/11/26 11:25:46;;;;;;;5.43;3.72;;;;;;;;;;10581834;28;20084;-81
2021/11/26 11:30:46;;;;;;;6.35;4.10;;;;;;;;;;10582839;28;20028;-82
2021/11/26 11:35:48;;;;;;;5.05;4.13;;;;;;;;;;10576822;28;20088;-81
2021/11/26 11:40:49;;;;;;;5.10;4.05;;;;;;;;;;10583775;28;20054;-81
2021/11/26 11:46:11;;;;;;;5.63;4.80;;;;;;;;;;10584516;28;20042;-81
2021/11/26 11:51:29;;;;;;;8.90;5.15;;;;;;;;;;10606149;27;20168;-79
2021/11/26 11:56:51;;;;;;;9.07;5.47;;;;;;;;;;10624025;27;20039;-80
2021/11/26 12:01:51;;;;;;;9.13;5.85;;;;;;;;;;10627709;27;20031;-79
2021/11/26 12:06:53;;;;;;;8.75;6.10;;;;;;;;;;10607648;27;20389;-80
2021/11/26 12:12:08;;;;;;;7.75;5.70;;;;;;;;;;10629025;27;20442;-80
2021/11/26 12:17:14;;;;;;;11.00;6.68;;;;;;;;;;10616972;27;20498;-80
2021/11/26 12:22:19;;;;;;;13.32;7.05;;;;;;;;;;10592542;27;20412;-80
2021/11/26 12:32:31;;;;;;;11.45;8.18;;;;;;;;;;10479969;22;20083;-79
2021/11/26 12:37:33;;;;;;;11.73;7.97;;;;;;;;;;10436030;28;20060;-78
2021/11/26 12:42:34;;;;;;;10.68;7.75;;;;;;;;;;10436185;28;20040;-78
2021/11/26 12:47:37;;;;;;;11.30;6.90;;;;;;;;;;10434389;28;20410;-79
2021/11/26 12:52:38;;;;;;;15.02;7.20;;;;;;;;;;10432873;28;20049;-78
2021/11/26 12:57:38;;;;;;;9.07;7.13;;;;;;;;;;10438237;28;20039;-78
2021/11/26 13:02:39;;;;;;;9.97;7.17;;;;;;;;;;10436007;28;20479;-77
2021/11/26 13:07:42;;;;;;;11.63;7.88;;;;;;;;;;10439702;28;20451;-78
2021/11/26 13:12:52;;;;;;;12.85;7.05;;;;;;;;;;10415873;28;20037;-79
2021/11/26 13:18:00;;;;;;;12.32;8.10;;;;;;;;;;10408791;28;20455;-78
2021/11/26 13:23:04;;;;;;;10.05;7.85;;;;;;;;;;10418287;28;20467;-78
2021/11/26 13:28:15;;;;;;;12.48;8.50;;;;;;;;;;10410436;28;20044;-80
2021/11/26 13:33:22;;;;;;;11.65;7.88;;;;;;;;;;10416596;28;20017;-80
2021/11/26 13:38:27;;;;;;;12.95;8.43;;;;;;;;;;10416331;28;20049;-79
2021/11/26 13:43:32;;;;;;;11.13;7.43;;;;;;;;;;10416173;28;20448;-78
2021/11/26 13:48:36;;;;;;;12.88;7.88;;;;;;;;;;10412936;28;20021;-79
2021/11/26 13:53:40;;;;;;;11.43;7.32;;;;;;;;;;10399828;28;20033;-79
2021/11/26 13:59:02;;;;;;;12.73;7.75;;;;;;;;;;10387452;28;20026;-79
2021/11/26 14:04:08;;;;;;;11.30;7.20;;;;;;;;;;10400850;28;20033;-79
2021/11/26 14:09:11;;;;;;;11.90;7.38;;;;;;;;;;10410101;28;20028;-78
2021/11/26 14:14:14;;;;;;;10.55;7.13;;;;;;;;;;10399344;28;20025;-78
2021/11/26 14:19:28;;;;;;;8.93;6.85;;;;;;;;;;10412825;28;20451;-78
2021/11/26 14:24:41;;;;;;;9.75;7.10;;;;;;;;;;10413351;28;20032;-78
2021/11/26 14:29:52;;;;;;;12.38;6.80;;;;;;;;;;10412129;28;20055;-79
2021/11/26 14:35:03;;;;;;;9.10;6.30;;;;;;;;;;10413983;28;20112;-77
2021/11/26 14:40:24;;;;;;;10.65;6.72;;;;;;;;;;10413335;28;20029;-77
2021/11/26 14:45:31;;;;;;;11.75;6.15;;;;;;;;;;10393554;28;20033;-78
2021/11/26 14:50:31;;;;;;;13.05;6.50;;;;;;;;;;10408855;28;20021;-77
2021/11/26 14:55:31;;;;;;;10.47;6.43;;;;;;;;;;10390084;28;20033;-78
2021/11/26 15:00:32;;;;;;;8.20;6.17;;;;;;;;;;10393928;28;20952;-78
2021/11/26 15:05:32;;;;;;;12.73;6.03;;;;;;;;;;10412228;28;20512;-78
2021/11/26 15:10:34;;;;;;;8.10;5.87;;;;;;;;;;10412003;28;20030;-77
2021/11/26 15:15:36;;;;;;;10.70;6.40;;;;;;;;;;10412898;28;20450;-78
2021/11/26 15:20:36;;;;;;;10.43;6.45;;;;;;;;;;10419871;28;20056;-78
2021/11/26 15:25:36;;;;;;;9.60;6.00;;;;;;;;;;10379776;28;20034;-78
2021/11/26 15:30:37;;;;;;;8.30;6.20;;;;;;;;;;10400784;28;20064;-79
2021/11/26 15:35:38;;;;;;;8.40;6.10;;;;;;;;;;10402520;28;20502;-78
2021/11/26 15:40:38;;;;;;;8.23;6.10;;;;;;;;;;10412922;28;20098;-77
2021/11/26 15:45:38;;;;;;;8.52;5.75;;;;;;;;;;10411267;28;20048;-78
2021/11/26 15:50:40;;;;;;;9.07;6.30;;;;;;;;;;10407635;28;20034;-78
2021/11/26 15:55:41;;;;;;;7.53;6.05;;;;;;;;;;10412488;28;20038;-78
2021/11/26 16:00:41;;;;;;;8.40;6.00;;;;;;;;;;10409202;28;20038;-77
2021/11/26 16:05:41;;;;;;;6.03;5.43;;;;;;;;;;10397593;28;20447;-79
2021/11/26 16:10:42;;;;;;;8.47;5.70;;;;;;;;;;10400055;28;20825;-78
2021/11/26 16:15:42;;;;;;;9.13;5.63;;;;;;;;;;10417529;28;20606;-78
2021/11/26 16:20:43;;;;;;;6.50;5.33;;;;;;;;;;10416564;28;20040;-78
2021/11/26 16:25:43;;;;;;;7.20;5.45;;;;;;;;;;10414597;28;20530;-77
2021/11/26 16:30:45;;;;;;;7.70;6.03;;;;;;;;;;10415173;28;20053;-78
2021/11/26 16:35:47;;;;;;;8.10;6.03;;;;;;;;;;10412404;28;20082;-77
2021/11/26 16:40:47;;;;;;;8.05;5.47;;;;;;;;;;10410770;28;20052;-78
2021/11/26 16:45:48;;;;;;;7.57;6.00;;;;;;;;;;10413603;28;20483;-78
2021/11/26 16:50:48;;;;;;;9.77;5.93;;;;;;;;;;10408972;28;20455;-78
2021/11/26 16:55:49;;;;;;;8.02;6.05;;;;;;;;;;10415142;28;20029;-78
2021/11/26 17:00:49;;;;;;;10.35;6.13;;;;;;;;;;10409330;28;20117;-78
2021/11/26 17:05:50;;;;;;;14.25;6.32;;;;;;;;;;10414582;28;20036;-78
2021/11/26 17:10:50;;;;;;;10.68;6.15;;;;;;;;;;10402971;28;20063;-78
2021/11/26 17:15:52;;;;;;;7.60;5.83;;;;;;;;;;10412637;28;20416;-77
2021/11/26 17:20:53;;;;;;;11.25;6.15;;;;;;;;;;10411669;28;20443;-79
2021/11/26 17:25:54;;;;;;;8.63;6.23;;;;;;;;;;10413171;28;20018;-79
2021/11/26 17:30:55;;;;;;;8.10;5.63;;;;;;;;;;10388070;28;20546;-79
2021/11/26 17:35:55;;;;;;;8.00;5.97;;;;;;;;;;10414325;28;20132;-80
2021/11/26 17:40:55;;;;;;;9.88;6.43;;;;;;;;;;10410116;28;20032;-80
2021/11/26 17:45:56;;;;;;;10.05;6.55;;;;;;;;;;10408109;28;20042;-81
2021/11/26 17:50:58;;;;;;;9.50;6.72;;;;;;;;;;10413845;28;20045;-80
2021/11/26 17:55:59;;;;;;;7.80;6.50;;;;;;;;;;10397281;28;20063;-79
2021/11/26 18:01:47;;;;;;;10.13;6.05;;;;;;;;;;10628840;27;21173;-83
2021/11/26 18:06:51;;;;;;;9.25;6.35;;;;;;;;;;10575335;28;20032;-83
2021/11/26 18:12:12;;;;;;;10.05;6.57;;;;;;;;;;10583787;28;20035;-83
2021/11/26 18:17:12;;;;;;;9.48;6.63;;;;;;;;;;10581115;28;20060;-83
2021/11/26 18:22:13;;;;;;;12.75;6.40;;;;;;;;;;10585192;28;20065;-82
2021/11/26 18:27:14;;;;;;;7.70;5.80;;;;;;;;;;10575808;28;20036;-83
2021/11/26 18:32:15;;;;;;;11.80;6.82;;;;;;;;;;10572396;28;20245;-83
2021/11/26 18:37:16;;;;;;;17.55;6.93;;;;;;;;;;10575153;28;20051;-83
2021/11/26 18:42:24;;;;;;;9.75;6.72;;;;;;;;;;10577697;28;20035;-83
2021/11/26 18:47:25;;;;;;;9.80;6.50;;;;;;;;;;10574428;28;20451;-83
2021/11/26 18:52:25;;;;;;;9.30;6.13;;;;;;;;;;10576863;28;20119;-83
2021/11/26 18:57:26;;;;;;;8.98;6.15;;;;;;;;;;10571749;28;20051;-81
2021/11/26 19:02:26;;;;;;;15.40;6.43;;;;;;;;;;10576743;28;20055;-82
2021/11/26 19:07:27;;;;;;;10.35;5.78;;;;;;;;;;10580873;28;20789;-82
2021/11/26 19:12:27;;;;;;;10.48;6.18;;;;;;;;;;10555310;28;20036;-82
2021/11/26 19:17:28;;;;;;;8.13;5.80;;;;;;;;;;10543240;28;20046;-82
2021/11/26 19:22:35;;;;;;;8.27;6.13;;;;;;;;;;10529481;28;20444;-81
2021/11/26 19:27:37;;;;;;;10.70;6.68;;;;;;;;;;10552091;28;20027;-82
2021/11/26 19:32:38;;;;;;;9.05;6.30;;;;;;;;;;10549830;28;20028;-81
2021/11/26 19:37:39;;;;;;;12.18;6.63;;;;;;;;;;10568713;28;20034;-82
2021/11/26 19:42:39;;;;;;;9.40;6.03;;;;;;;;;;10558341;28;20046;-82
2021/11/26 19:47:39;;;;;;;9.00;6.45;;;;;;;;;;10549094;28;20024;-82
2021/11/26 19:52:40;;;;;;;10.60;6.70;;;;;;;;;;10551349;28;20461;-82
2021/11/26 19:57:41;;;;;;;9.95;6.28;;;;;;;;;;10548567;28;20036;-82
2021/11/26 20:02:42;;;;;;;12.68;6.78;;;;;;;;;;10558869;28;20028;-82
2021/11/26 20:07:43;;;;;;;8.48;6.55;;;;;;;;;;10555894;28;20028;-82
2021/11/26 20:12:46;;;;;;;11.23;7.00;;;;;;;;;;10563797;28;20031;-81
2021/11/26 20:17:46;;;;;;;10.55;6.60;;;;;;;;;;10559203;28;20107;-82
2021/11/26 20:24:46;;;;;;;15.10;7.50;;;;;;;;;;10500458;28;20149;-79
2021/11/26 20:29:46;;;;;;;12.18;7.50;;;;;;;;;;10514905;28;20116;-80
2021/11/26 20:34:47;;;;;;;8.45;6.88;;;;;;;;;;10504026;28;20472;-80
2021/11/26 20:39:47;;;;;;;10.67;7.23;;;;;;;;;;10495780;28;20052;-81
2021/11/26 20:44:47;;;;;;;12.40;6.80;;;;;;;;;;10501010;28;20426;-81
2021/11/26 20:49:48;;;;;;;11.43;6.83;;;;;;;;;;10512282;28;20489;-81
2021/11/26 20:54:49;;;;;;;22.13;7.35;;;;;;;;;;10500036;28;20516;-81
2021/11/26 20:59:49;;;;;;;25.98;8.02;;;;;;;;;;10503101;28;20036;-81
2021/11/26 21:04:50;;;;;;;13.68;8.15;;;;;;;;;;10508874;28;20044;-80
2021/11/26 21:09:50;;;;;;;19.02;7.82;;;;;;;;;;10511772;28;20163;-80
2021/11/26 21:14:51;;;;;;;14.40;7.60;;;;;;;;;;10513167;28;20586;-80
2021/11/26 21:19:51;;;;;;;10.40;6.82;;;;;;;;;;10508996;28;20460;-80
2021/11/26 21:24:52;;;;;;;13.37;7.33;;;;;;;;;;10543167;28;20414;-81
2021/11/26 21:29:52;;;;;;;9.73;6.72;;;;;;;;;;10540656;28;20441;-81
2021/11/26 21:34:53;;;;;;;12.43;7.47;;;;;;;;;;10515817;28;20016;-82
2021/11/26 21:39:53;;;;;;;13.52;6.53;;;;;;;;;;10515006;28;20859;-82
2021/11/26 21:44:55;;;;;;;15.75;7.78;;;;;;;;;;10528829;28;20371;-82
2021/11/26 21:49:56;;;;;;;12.00;6.85;;;;;;;;;;10516437;28;20028;-82
2021/11/26 21:54:56;;;;;;;25.63;8.80;;;;;;;;;;10516241;28;20032;-82
2021/11/26 21:59:57;;;;;;;14.95;7.28;;;;;;;;;;10523396;28;20028;-83
2021/11/26 22:04:57;;;;;;;10.57;6.72;;;;;;;;;;10513184;28;20029;-82
2021/11/26 22:09:58;;;;;;;13.48;6.85;;;;;;;;;;10508334;28;20118;-82
2021/11/26 22:14:59;;;;;;;15.13;7.30;;;;;;;;;;10521262;28;20115;-82
2021/11/26 22:20:00;;;;;;;10.45;6.60;;;;;;;;;;10525400;28;20473;-82
2021/11/26 22:25:01;;;;;;;15.95;7.68;;;;;;;;;;10521206;28;20079;-82
2021/11/26 22:30:04;;;;;;;10.68;6.93;;;;;;;;;;10515947;28;20040;-82
2021/11/26 22:35:05;;;;;;;11.75;6.97;;;;;;;;;;10503843;28;20024;-82
2021/11/26 22:40:07;;;;;;;16.65;7.15;;;;;;;;;;10532671;28;20048;-82
2021/11/26 22:45:08;;;;;;;11.73;6.95;;;;;;;;;;10519827;28;20115;-82
2021/11/26 22:50:12;;;;;;;13.23;6.50;;;;;;;;;;10514433;28;20495;-82
2021/11/26 22:55:13;;;;;;;11.07;6.47;;;;;;;;;;10517113;28;20082;-82
2021/11/26 23:00:23;;;;;;;11.88;7.32;;;;;;;;;;10520412;28;20363;-82
2021/11/26 23:05:24;;;;;;;12.43;6.53;;;;;;;;;;10512042;28;20020;-82
2021/11/26 23:10:24;;;;;;;14.07;6.95;;;;;;;;;;10516810;28;20154;-82
2021/11/26 23:15:25;;;;;;;10.88;6.30;;;;;;;;;;10508365;28;20521;-84
2021/11/26 23:20:29;;;;;;;26.17;7.28;;;;;;;;;;10529016;28;20436;-85
2021/11/26 23:25:30;;;;;;;22.75;7.88;;;;;;;;;;10514200;28;20059;-86
2021/11/26 23:30:31;;;;;;;17.42;7.22;;;;;;;;;;10492310;28;20039;-86
2021/11/26 23:35:32;;;;;;;18.52;7.22;;;;;;;;;;10512390;28;20035;-87
2021/11/26 23:40:33;;;;;;;15.15;7.28;;;;;;;;;;10495982;28;20029;-84
2021/11/26 23:45:35;;;;;;;17.58;7.07;;;;;;;;;;10511281;28;20438;-83
2021/11/26 23:50:37;;;;;;;28.60;7.50;;;;;;;;;;10520822;28;20343;-80
2021/11/26 23:55:37;;;;;;;16.15;7.05;;;;;;;;;;10511377;28;20031;-81
